aviador You're here:

SANT Decoded Metar

TUCUMAN in ARGENTINA
Report Time2018-01-18 01:00:00
UTC Time2018-01-18 01:52:58
Flight Rules vfr VFR
Wind250° at 06 kt
W.Decomp.*RWY 19: 2.4 kt HW 5.5 kt RCW
W.Rank250° ranks 16
Current wind is above 250° avg. (4.5)
Visibility9000 m
Phenomena:N/A
Clouds:Scattered 030 Hf
Broken 040 Hf
Broken 100 Hf
Expected CloudBase > 400 ft AGL from Temp-Dew spread
Ceiling4,000 ft
Temp21°C (ISA +9)
Dew Point20°C (94% RH)
QNH1015 hPa
Density Alt2,766 ft
Elevation1,476 ft
Report Wrong Elevation
Raw Report
METAR SANT 180100Z 25006KT 9000 SCT030 BKN040 BKN100 21/20 Q1015=

Extra information for SANT:More info

Metar Taf Metar & Taf Last 4 Metars F.Rules Stats Wind Profile Meteogram Temp Stats Airport Information Weather charts Add Link Nearby VenuesMetar ALERT Operation Metar Decoded Social comments